Larkfield, California
Current Conditions -  °F | °C
As of 7:53 PM on Tuesday 21 Oct 2014 (Local Time) from KSTS Reporting Station
Clear Clear  
Wind Chill: 16°   Ceiling: Unl
Heat Index: 16°   Visibility: 10mi
Dew Point: 10°   Wind: 7mph
Humidity: 67%   Direction: 250°WSW
Pressure: 30.01"   Gusts: NA
Location:  38.4891°N, 122.745°W
Report Text: KSTS 220253Z AUTO 25006KT 10SM CLR 16/10 A3001 RMK AO2 SLP156 T01610100 53007
Loading
Personal Weather Stations






























Interactive Weather Map
Tropical Storm Tracking
New forecast layout! Learn more

10-Day Weather Forecast

Advertisements
Track Severe Weather on mobile